Time;durP1;ratioP1;P1;durP2;ratioP2;P2;SDS_P1;SDS_P2;PMS_P1;PMS_P2;Temp;Humidity;BMP_temperature;BMP_pressure;BME280_temperature;BME280_humidity;BME280_pressure;Samples;Min_cycle;Max_cycle;Signal;HPM_P1;HPM_P2
2024/03/22 00:02:11;;;;;;;27.93;25.17;;;10.10;99.90;;;;;;4879339;29;20446;-69
2024/03/22 00:04:37;;;;;;;31.20;28.10;;;10.10;99.90;;;;;;4879221;29;20458;-69
2024/03/22 00:07:05;;;;;;;30.77;27.63;;;10.10;99.90;;;;;;4879765;29;20447;-69
2024/03/22 00:09:31;;;;;;;28.00;25.40;;;10.10;99.90;;;;;;4879065;29;20545;-69
2024/03/22 00:11:59;;;;;;;29.30;26.67;;;10.10;99.90;;;;;;4878736;29;20526;-69
2024/03/22 00:14:25;;;;;;;31.50;28.13;;;10.10;99.90;;;;;;4879093;29;20447;-69
2024/03/22 00:16:54;;;;;;;30.30;27.40;;;10.10;99.90;;;;;;4894668;29;20454;-69
2024/03/22 00:19:20;;;;;;;30.90;28.00;;;10.20;99.90;;;;;;4878899;29;20457;-69
2024/03/22 00:21:47;;;;;;;31.17;28.00;;;10.20;99.90;;;;;;4863391;29;20574;-69
2024/03/22 00:24:13;;;;;;;29.27;26.47;;;10.20;99.90;;;;;;4880375;29;20449;-69
2024/03/22 00:26:41;;;;;;;29.77;26.87;;;10.20;99.90;;;;;;4879589;29;20529;-69
2024/03/22 00:29:15;;;;;;;31.33;28.37;;;10.20;99.90;;;;;;4879038;29;20422;-69
2024/03/22 00:31:42;;;;;;;30.97;28.00;;;10.20;99.90;;;;;;4878676;29;20853;-69
2024/03/22 00:34:10;;;;;;;31.33;28.17;;;10.20;99.90;;;;;;4879262;29;20463;-69
2024/03/22 00:36:37;;;;;;;31.63;28.63;;;10.20;99.90;;;;;;4878701;29;20461;-69
2024/03/22 00:39:03;;;;;;;33.33;29.93;;;10.20;99.90;;;;;;4878650;29;20542;-69
2024/03/22 00:41:31;;;;;;;33.50;30.30;;;10.20;99.90;;;;;;4878603;29;20473;-69
2024/03/22 00:43:58;;;;;;;33.73;30.43;;;10.20;99.90;;;;;;4878515;29;20454;-69
2024/03/22 00:46:25;;;;;;;34.67;31.30;;;10.20;99.90;;;;;;4878594;29;20552;-69
2024/03/22 00:48:51;;;;;;;34.63;31.13;;;10.20;99.90;;;;;;4879348;29;20529;-69
2024/03/22 00:51:20;;;;;;;36.67;32.97;;;10.30;99.90;;;;;;4878508;29;20854;-69
2024/03/22 00:53:46;;;;;;;35.93;32.53;;;10.30;99.90;;;;;;4878576;29;20866;-69
2024/03/22 00:56:13;;;;;;;36.67;33.13;;;10.30;99.90;;;;;;4878466;29;20450;-69
2024/03/22 00:58:40;;;;;;;37.40;33.70;;;10.30;99.90;;;;;;4878478;29;20457;-69
2024/03/22 01:01:07;;;;;;;38.03;34.30;;;10.30;99.90;;;;;;4862762;29;20819;-69
2024/03/22 01:03:33;;;;;;;38.43;34.73;;;10.30;99.90;;;;;;4878646;29;20800;-69
2024/03/22 01:06:01;;;;;;;37.40;33.70;;;10.30;99.90;;;;;;4862860;29;20468;-69
2024/03/22 01:08:29;;;;;;;37.67;34.17;;;10.30;99.90;;;;;;4877913;29;20505;-69
2024/03/22 01:10:56;;;;;;;36.80;33.17;;;10.30;99.90;;;;;;4878232;29;20912;-69
2024/03/22 01:13:23;;;;;;;40.33;36.47;;;10.30;99.90;;;;;;4878166;29;20834;-69
2024/03/22 01:15:50;;;;;;;38.17;34.47;;;10.30;99.90;;;;;;4878619;29;20454;-69
2024/03/22 01:18:17;;;;;;;38.60;34.90;;;10.30;99.90;;;;;;4878282;29;20450;-69
2024/03/22 01:20:44;;;;;;;38.47;34.57;;;10.30;99.90;;;;;;4878118;29;20469;-69
2024/03/22 01:23:10;;;;;;;40.70;36.83;;;10.40;99.90;;;;;;4878437;29;20912;-69
2024/03/22 01:25:39;;;;;;;43.33;39.13;;;10.40;99.90;;;;;;4894140;29;20502;-68
2024/03/22 01:28:06;;;;;;;42.30;38.20;;;10.40;99.90;;;;;;4878246;29;20450;-69
2024/03/22 01:30:34;;;;;;;42.73;38.60;;;10.40;99.90;;;;;;4878063;29;20913;-69
2024/03/22 01:33:00;;;;;;;41.80;37.57;;;10.40;99.90;;;;;;4878398;29;20454;-69
2024/03/22 01:35:27;;;;;;;43.27;38.77;;;10.40;99.90;;;;;;4878100;29;20476;-69
2024/03/22 01:37:53;;;;;;;43.10;38.73;;;10.40;99.90;;;;;;4878231;29;20450;-69
2024/03/22 01:40:21;;;;;;;44.17;39.97;;;10.40;99.90;;;;;;4878267;29;20549;-69
2024/03/22 01:42:52;;;;;;;45.40;40.70;;;10.40;99.90;;;;;;4878342;29;20456;-69
2024/03/22 01:45:20;;;;;;;44.87;40.47;;;10.40;99.90;;;;;;4878068;29;20457;-69
2024/03/22 01:47:46;;;;;;;45.83;41.17;;;10.40;99.90;;;;;;4878037;29;20454;-69
2024/03/22 01:50:13;;;;;;;43.53;39.17;;;10.40;99.90;;;;;;4878373;29;20473;-70
2024/03/22 01:52:40;;;;;;;45.83;40.80;;;10.40;99.90;;;;;;4878010;29;20496;-69
2024/03/22 01:55:08;;;;;;;43.70;39.20;;;10.50;99.90;;;;;;4877981;29;20445;-69
2024/03/22 01:57:35;;;;;;;45.60;40.87;;;10.50;99.90;;;;;;4877887;29;20550;-69
2024/03/22 02:00:06;;;;;;;44.87;40.33;;;10.50;99.90;;;;;;4877828;29;20466;-69
2024/03/22 02:02:40;;;;;;;44.03;39.83;;;10.50;99.90;;;;;;4877993;29;20426;-69
2024/03/22 02:05:15;;;;;;;46.83;42.17;;;10.50;99.90;;;;;;4877891;29;20476;-69
2024/03/22 02:07:41;;;;;;;45.23;40.47;;;10.50;99.90;;;;;;4878575;29;20446;-69
2024/03/22 02:10:10;;;;;;;46.67;42.17;;;10.50;99.90;;;;;;4877745;29;20466;-69
2024/03/22 02:12:37;;;;;;;47.53;42.83;;;10.50;99.90;;;;;;4877650;29;20514;-69
2024/03/22 02:15:07;;;;;;;46.23;41.50;;;10.50;99.90;;;;;;4862285;29;20544;-69
2024/03/22 02:17:33;;;;;;;48.93;43.97;;;10.50;99.90;;;;;;4877746;29;20458;-69
2024/03/22 02:20:01;;;;;;;48.53;43.73;;;10.50;99.90;;;;;;4878769;29;20466;-69
2024/03/22 02:22:27;;;;;;;48.07;43.27;;;10.50;99.90;;;;;;4881101;29;20445;-69
2024/03/22 02:24:56;;;;;;;47.87;43.07;;;10.50;99.90;;;;;;4881027;29;20510;-69
2024/03/22 02:27:22;;;;;;;47.07;42.37;;;10.50;99.90;;;;;;4881188;29;20454;-69
2024/03/22 02:29:50;;;;;;;51.60;46.20;;;10.50;99.90;;;;;;4880831;29;20450;-69
2024/03/22 02:32:16;;;;;;;50.90;45.77;;;10.50;99.90;;;;;;4881088;29;20549;-69
2024/03/22 02:34:43;;;;;;;48.50;43.57;;;10.50;99.90;;;;;;4896501;29;20446;-69
2024/03/22 02:37:10;;;;;;;49.97;44.90;;;10.50;99.90;;;;;;4880677;29;20473;-69
2024/03/22 02:39:37;;;;;;;48.13;43.30;;;10.50;99.90;;;;;;4880744;29;20971;-69
2024/03/22 02:42:05;;;;;;;49.50;44.50;;;10.60;99.90;;;;;;4865139;29;20457;-69
2024/03/22 02:44:32;;;;;;;51.17;45.33;;;10.50;99.90;;;;;;4880702;29;20944;-69
2024/03/22 02:46:59;;;;;;;48.00;43.03;;;10.60;99.90;;;;;;4880663;29;20510;-69
2024/03/22 02:49:26;;;;;;;49.93;44.97;;;10.60;99.90;;;;;;4896209;29;20825;-69
2024/03/22 02:51:52;;;;;;;50.77;45.47;;;10.60;99.90;;;;;;4880414;29;21046;-69
2024/03/22 02:54:19;;;;;;;51.40;46.10;;;10.60;99.90;;;;;;4880414;29;20446;-69
2024/03/22 02:56:46;;;;;;;51.87;46.17;;;10.60;99.90;;;;;;4880465;29;20450;-69
2024/03/22 02:59:14;;;;;;;50.27;45.07;;;10.60;99.90;;;;;;4880445;29;20454;-69
2024/03/22 03:01:41;;;;;;;48.77;43.67;;;10.60;99.90;;;;;;4880116;29;20477;-69
2024/03/22 03:04:08;;;;;;;48.70;43.60;;;10.60;99.90;;;;;;4880780;29;20451;-69
2024/03/22 03:06:34;;;;;;;52.80;46.87;;;10.60;99.90;;;;;;4880232;29;20545;-69
2024/03/22 03:09:02;;;;;;;49.20;44.10;;;10.60;99.90;;;;;;4880749;29;20461;-69
2024/03/22 03:11:28;;;;;;;47.90;42.90;;;10.70;99.90;;;;;;4880378;29;20474;-69
2024/03/22 03:13:55;;;;;;;51.57;46.17;;;10.70;99.90;;;;;;4879972;29;20457;-69
2024/03/22 03:16:23;;;;;;;51.80;44.97;;;10.70;99.90;;;;;;4880121;29;20528;-69
2024/03/22 03:18:50;;;;;;;49.37;44.10;;;10.70;99.90;;;;;;4880074;29;20956;-69
2024/03/22 03:21:16;;;;;;;51.70;46.10;;;10.70;99.90;;;;;;4879866;29;20504;-69
2024/03/22 03:23:44;;;;;;;51.23;45.90;;;10.70;99.90;;;;;;4880288;29;20442;-69
2024/03/22 03:26:10;;;;;;;49.20;43.90;;;10.70;99.90;;;;;;4879863;29;20841;-69
2024/03/22 03:28:37;;;;;;;50.37;45.00;;;10.70;99.90;;;;;;4879807;29;20446;-69
2024/03/22 03:31:04;;;;;;;48.20;43.00;;;10.70;99.90;;;;;;4879443;29;20841;-69
2024/03/22 03:33:33;;;;;;;50.60;45.27;;;10.70;99.90;;;;;;4879820;29;20450;-69
2024/03/22 03:35:59;;;;;;;50.63;45.33;;;10.70;99.90;;;;;;4895301;29;20975;-69
2024/03/22 03:38:26;;;;;;;51.27;45.83;;;10.70;99.90;;;;;;4879739;29;20472;-69
2024/03/22 03:40:52;;;;;;;51.03;45.50;;;10.70;99.90;;;;;;4864018;29;20849;-69
2024/03/22 03:43:20;;;;;;;53.00;47.00;;;10.70;99.90;;;;;;4864123;29;20819;-69
2024/03/22 03:45:46;;;;;;;53.23;47.63;;;10.80;99.90;;;;;;4879518;29;20458;-69
2024/03/22 03:48:13;;;;;;;50.53;45.10;;;10.80;99.90;;;;;;4879623;29;20469;-69
2024/03/22 03:50:41;;;;;;;51.20;45.80;;;10.80;99.90;;;;;;4879635;29;20475;-69
2024/03/22 03:53:08;;;;;;;51.87;46.27;;;10.80;99.90;;;;;;4879983;29;20488;-69
2024/03/22 03:55:34;;;;;;;52.93;47.30;;;10.80;99.90;;;;;;4879727;29;20815;-69
2024/03/22 03:58:02;;;;;;;50.80;45.40;;;10.80;99.90;;;;;;4879424;29;20461;-69
2024/03/22 04:00:28;;;;;;;49.10;43.97;;;10.80;99.90;;;;;;4879474;29;20473;-69
2024/03/22 04:02:55;;;;;;;52.60;46.90;;;10.80;99.90;;;;;;4879348;29;20892;-70
2024/03/22 04:05:21;;;;;;;53.30;46.67;;;10.80;99.90;;;;;;4879645;29;20458;-69
2024/03/22 04:07:50;;;;;;;51.67;45.23;;;10.80;99.90;;;;;;4879283;29;20960;-69
2024/03/22 04:10:16;;;;;;;52.30;46.60;;;10.80;99.90;;;;;;4879200;29;20477;-69
2024/03/22 04:12:46;;;;;;;52.20;46.77;;;10.90;99.90;;;;;;4879035;29;20553;-69
2024/03/22 04:15:12;;;;;;;54.57;48.60;;;10.90;99.90;;;;;;4878990;29;20454;-69
2024/03/22 04:17:39;;;;;;;52.80;47.20;;;10.90;99.90;;;;;;4879108;29;20506;-69
2024/03/22 04:20:07;;;;;;;51.67;46.27;;;10.90;99.90;;;;;;4878982;29;20518;-69
2024/03/22 04:22:34;;;;;;;54.73;48.77;;;10.90;99.90;;;;;;4879078;29;20449;-69
2024/03/22 04:25:01;;;;;;;52.57;46.83;;;10.90;99.90;;;;;;4879000;29;20457;-69
2024/03/22 04:27:29;;;;;;;53.60;48.00;;;10.90;99.90;;;;;;4878995;29;20493;-69
2024/03/22 04:29:55;;;;;;;52.53;46.87;;;10.90;99.90;;;;;;4878934;29;20868;-69
2024/03/22 04:32:22;;;;;;;52.43;46.73;;;10.90;99.90;;;;;;4878797;29;21003;-69
2024/03/22 04:34:48;;;;;;;55.30;47.17;;;10.90;99.90;;;;;;4878863;29;20486;-69
2024/03/22 04:37:16;;;;;;;53.83;47.97;;;10.90;99.90;;;;;;4878810;29;20450;-69
2024/03/22 04:39:46;;;;;;;55.50;49.50;;;10.90;99.90;;;;;;4878659;29;20462;-69
2024/03/22 04:42:15;;;;;;;53.20;47.47;;;10.90;99.90;;;;;;4878728;29;20439;-69
2024/03/22 04:44:43;;;;;;;54.30;48.37;;;11.00;99.90;;;;;;4878724;29;20449;-69
2024/03/22 04:47:09;;;;;;;51.90;46.27;;;11.00;99.90;;;;;;4878954;29;20462;-69
2024/03/22 04:49:36;;;;;;;56.27;46.97;;;11.00;99.90;;;;;;4878688;29;20948;-70
2024/03/22 04:52:03;;;;;;;55.47;48.03;;;11.00;99.90;;;;;;4878432;29;20486;-69
2024/03/22 04:54:30;;;;;;;52.47;46.77;;;11.00;99.90;;;;;;4878641;29;20447;-70
2024/03/22 04:56:56;;;;;;;52.87;47.10;;;11.00;99.90;;;;;;4878791;29;20458;-69
2024/03/22 04:59:25;;;;;;;53.20;47.50;;;11.00;99.90;;;;;;4878506;29;20450;-69
2024/03/22 05:01:51;;;;;;;56.67;47.37;;;11.00;99.90;;;;;;4878458;29;20473;-69
2024/03/22 05:04:18;;;;;;;55.50;48.67;;;11.00;99.90;;;;;;4878458;29;20454;-72
2024/03/22 05:06:45;;;;;;;53.13;46.57;;;11.00;99.90;;;;;;4878490;29;20506;-69
2024/03/22 05:09:12;;;;;;;41.53;35.87;;;11.10;99.90;;;;;;4878615;29;20446;-69
2024/03/22 05:11:38;;;;;;;54.90;48.90;;;11.10;99.90;;;;;;4894189;29;20999;-69
2024/03/22 05:14:06;;;;;;;54.10;48.20;;;11.10;99.90;;;;;;4863074;29;20442;-69
2024/03/22 05:16:34;;;;;;;51.23;45.10;;;11.10;99.90;;;;;;4878408;29;20475;-69
2024/03/22 05:19:01;;;;;;;56.60;50.07;;;11.10;99.90;;;;;;4878888;29;20446;-69
2024/03/22 05:21:28;;;;;;;53.53;46.87;;;11.10;99.90;;;;;;4879130;29;20489;-69
2024/03/22 05:23:55;;;;;;;53.30;47.30;;;11.10;99.90;;;;;;4878638;29;20482;-69
2024/03/22 05:26:22;;;;;;;54.83;48.77;;;11.10;99.90;;;;;;4879468;29;20454;-69
2024/03/22 05:28:49;;;;;;;55.33;49.30;;;11.10;99.90;;;;;;4878655;29;20878;-69
2024/03/22 05:31:16;;;;;;;55.00;49.00;;;11.10;99.90;;;;;;4878107;29;21023;-69
2024/03/22 05:33:44;;;;;;;52.27;46.40;;;11.10;99.90;;;;;;4878610;29;20493;-69
2024/03/22 05:36:11;;;;;;;53.03;47.50;;;11.10;99.90;;;;;;4878590;29;20506;-69
2024/03/22 05:38:38;;;;;;;53.27;47.30;;;11.10;99.90;;;;;;4862775;29;20529;-69
2024/03/22 05:41:05;;;;;;;54.10;48.30;;;11.10;99.90;;;;;;4878414;29;20972;-69
2024/03/22 05:43:32;;;;;;;54.23;48.33;;;11.10;99.90;;;;;;4878484;29;20442;-69
2024/03/22 05:45:58;;;;;;;52.90;47.10;;;11.10;99.90;;;;;;4862613;29;20989;-69
2024/03/22 05:48:25;;;;;;;53.83;48.03;;;11.20;99.90;;;;;;4877977;29;20501;-69
2024/03/22 05:50:53;;;;;;;54.27;48.17;;;11.20;99.90;;;;;;4878102;29;20477;-69
2024/03/22 05:53:20;;;;;;;56.47;50.20;;;11.20;99.90;;;;;;4878128;29;20485;-69
2024/03/22 05:55:47;;;;;;;52.30;46.60;;;11.20;99.90;;;;;;4881522;29;20455;-69
2024/03/22 05:58:14;;;;;;;56.43;47.97;;;11.20;99.90;;;;;;4881479;29;20454;-69
2024/03/22 06:00:40;;;;;;;55.30;48.20;;;11.20;99.90;;;;;;4881511;29;20470;-69
2024/03/22 06:03:07;;;;;;;57.03;49.63;;;11.20;99.90;;;;;;4897338;29;20924;-70
2024/03/22 06:05:34;;;;;;;52.83;46.70;;;11.20;99.90;;;;;;4881428;29;20454;-70
2024/03/22 06:08:03;;;;;;;55.00;49.00;;;11.20;99.90;;;;;;4881961;29;20928;-70
2024/03/22 06:10:29;;;;;;;59.50;48.70;;;11.20;99.90;;;;;;4881143;29;20852;-70
2024/03/22 06:12:57;;;;;;;57.22;48.05;;;11.20;99.90;;;;;;4880592;29;20963;-70
2024/03/22 06:15:23;;;;;;;53.80;46.80;;;11.30;99.90;;;;;;4881512;29;20731;-70
2024/03/22 06:17:51;;;;;;;56.63;49.77;;;11.30;99.90;;;;;;4881305;29;20465;-70
2024/03/22 06:20:17;;;;;;;54.97;47.30;;;11.30;99.90;;;;;;4881161;29;20485;-69
2024/03/22 06:22:44;;;;;;;59.47;50.03;;;11.30;99.90;;;;;;4881690;29;20454;-70
2024/03/22 06:25:12;;;;;;;56.87;49.57;;;11.30;99.90;;;;;;4881040;29;20971;-70
2024/03/22 06:27:39;;;;;;;57.67;50.10;;;11.40;99.90;;;;;;4881060;29;20489;-70
2024/03/22 06:30:07;;;;;;;58.17;50.70;;;11.40;99.90;;;;;;4880910;29;20480;-70
2024/03/22 06:32:34;;;;;;;56.37;50.20;;;11.40;99.90;;;;;;4880815;29;20537;-70
2024/03/22 06:35:01;;;;;;;58.80;50.67;;;11.40;99.90;;;;;;4880887;29;20478;-70
2024/03/22 06:37:28;;;;;;;55.87;48.50;;;11.40;99.90;;;;;;4896521;29;20959;-69
2024/03/22 06:39:54;;;;;;;55.93;49.80;;;11.40;99.90;;;;;;4865306;29;20446;-70
2024/03/22 06:42:23;;;;;;;57.80;50.37;;;11.40;99.90;;;;;;4880875;29;20453;-69
2024/03/22 06:44:49;;;;;;;60.53;49.97;;;11.40;99.90;;;;;;4880790;29;20828;-70
2024/03/22 06:47:17;;;;;;;60.60;50.90;;;11.40;99.90;;;;;;4880931;29;20490;-69
2024/03/22 06:49:43;;;;;;;56.87;48.40;;;11.40;99.90;;;;;;4880769;29;20460;-69
2024/03/22 06:52:10;;;;;;;59.50;50.27;;;11.40;99.90;;;;;;4880668;29;20474;-68
2024/03/22 06:54:36;;;;;;;60.90;51.07;;;11.40;99.90;;;;;;4880643;29;20450;-70
2024/03/22 06:57:04;;;;;;;56.43;46.90;;;11.40;99.90;;;;;;4880436;29;20956;-70
2024/03/22 06:59:32;;;;;;;58.13;48.40;;;11.40;99.90;;;;;;4895955;29;20500;-69
2024/03/22 07:01:59;;;;;;;64.60;52.60;;;11.40;99.90;;;;;;4880708;29;20466;-70
2024/03/22 07:04:25;;;;;;;59.00;51.20;;;11.40;99.90;;;;;;4880552;29;20451;-70
2024/03/22 07:06:52;;;;;;;64.00;53.50;;;11.40;99.90;;;;;;4880184;29;20514;-70
2024/03/22 07:09:19;;;;;;;60.77;53.20;;;11.40;99.90;;;;;;4880405;29;20542;-69
2024/03/22 07:11:46;;;;;;;67.20;53.87;;;11.40;99.90;;;;;;4880097;29;20510;-71
2024/03/22 07:14:12;;;;;;;66.17;53.07;;;11.40;99.90;;;;;;4880505;29;20434;-69
2024/03/22 07:16:41;;;;;;;60.97;50.50;;;11.40;99.90;;;;;;4880309;29;20458;-70
2024/03/22 07:19:07;;;;;;;63.40;53.00;;;11.40;99.90;;;;;;4880081;29;20493;-69
2024/03/22 07:21:34;;;;;;;68.73;56.50;;;11.40;99.90;;;;;;4879920;29;20474;-69
2024/03/22 07:24:01;;;;;;;65.90;54.47;;;11.40;99.90;;;;;;4880160;29;20446;-69
2024/03/22 07:26:28;;;;;;;67.33;54.77;;;11.40;99.90;;;;;;4880627;29;20464;-69
2024/03/22 07:28:54;;;;;;;72.73;56.30;;;11.40;99.90;;;;;;4880211;29;20461;-69
2024/03/22 07:31:21;;;;;;;69.10;53.33;;;11.40;99.90;;;;;;4880051;29;20478;-69
2024/03/22 07:33:49;;;;;;;68.87;55.73;;;11.40;99.90;;;;;;4879794;29;20984;-69
2024/03/22 07:36:17;;;;;;;69.97;55.90;;;11.40;99.90;;;;;;4879885;29;20466;-69
2024/03/22 07:38:43;;;;;;;70.80;55.80;;;11.40;99.90;;;;;;4880124;29;20489;-69
2024/03/22 07:41:11;;;;;;;72.80;55.60;;;11.40;99.90;;;;;;4879986;29;20502;-69
2024/03/22 07:43:37;;;;;;;67.57;54.80;;;11.40;99.90;;;;;;4879725;29;20460;-69
2024/03/22 07:46:05;;;;;;;66.13;55.20;;;11.40;99.90;;;;;;4879626;29;20457;-69
2024/03/22 07:48:31;;;;;;;68.17;54.43;;;11.40;99.90;;;;;;4879700;29;20452;-69
2024/03/22 07:51:00;;;;;;;69.60;55.07;;;11.40;99.90;;;;;;4879439;29;20838;-69
2024/03/22 07:53:27;;;;;;;66.67;54.90;;;11.40;99.90;;;;;;4879520;29;20477;-69
2024/03/22 07:55:54;;;;;;;75.13;58.17;;;11.40;99.90;;;;;;4879833;29;20974;-70
2024/03/22 07:58:21;;;;;;;71.73;57.90;;;11.40;99.90;;;;;;4879817;29;20847;-69
2024/03/22 08:00:48;;;;;;;72.83;57.60;;;11.50;99.90;;;;;;4879442;29;20877;-69
2024/03/22 08:03:15;;;;;;;74.30;56.40;;;11.50;99.90;;;;;;4879724;29;20447;-69
2024/03/22 08:05:42;;;;;;;71.03;57.17;;;11.50;99.90;;;;;;4879279;29;20450;-69
2024/03/22 08:08:10;;;;;;;67.70;55.07;;;11.50;99.90;;;;;;4879766;29;20450;-69
2024/03/22 08:10:37;;;;;;;73.70;59.60;;;11.50;99.90;;;;;;4879312;29;20877;-70
2024/03/22 08:13:04;;;;;;;68.80;55.30;;;11.50;99.90;;;;;;4879125;29;20572;-69
2024/03/22 08:15:31;;;;;;;73.40;56.00;;;11.50;99.90;;;;;;4879227;29;20449;-69
2024/03/22 08:17:57;;;;;;;68.03;55.83;;;11.50;99.90;;;;;;4878523;29;20482;-69
2024/03/22 08:20:25;;;;;;;62.77;52.00;;;11.50;99.90;;;;;;4894550;29;20474;-69
2024/03/22 08:22:51;;;;;;;62.33;52.90;;;11.50;99.90;;;;;;4879070;29;20502;-70
2024/03/22 08:25:20;;;;;;;60.30;52.77;;;11.50;99.90;;;;;;4879046;29;20450;-69
2024/03/22 08:27:47;;;;;;;62.00;52.80;;;11.50;99.90;;;;;;4879424;29;20461;-69
2024/03/22 08:30:15;;;;;;;61.90;53.30;;;11.50;99.90;;;;;;4879550;29;20834;-69
2024/03/22 08:32:41;;;;;;;63.07;53.40;;;11.50;99.90;;;;;;4879152;29;20902;-69
2024/03/22 08:35:09;;;;;;;63.10;53.87;;;11.60;99.90;;;;;;4894479;29;20446;-69
2024/03/22 08:37:35;;;;;;;64.03;54.07;;;11.60;99.90;;;;;;4879232;29;20458;-69
2024/03/22 08:40:04;;;;;;;66.97;54.77;;;11.60;99.90;;;;;;4879348;29;20474;-69
2024/03/22 08:42:32;;;;;;;62.00;54.40;;;11.60;99.90;;;;;;4879230;29;20506;-68
2024/03/22 08:44:59;;;;;;;62.37;55.03;;;11.60;99.90;;;;;;4879268;29;20456;-69
2024/03/22 08:47:26;;;;;;;58.30;50.93;;;11.60;99.90;;;;;;4879188;29;20454;-69
2024/03/22 08:49:53;;;;;;;58.13;51.83;;;11.60;99.90;;;;;;4879137;29;20461;-69
2024/03/22 08:52:19;;;;;;;59.70;51.77;;;11.60;99.90;;;;;;4879562;29;20460;-69
2024/03/22 08:54:47;;;;;;;57.83;50.27;;;11.60;99.90;;;;;;4879101;29;20461;-69
2024/03/22 08:57:13;;;;;;;55.63;48.07;;;11.70;99.90;;;;;;4879169;29;20447;-69
2024/03/22 08:59:42;;;;;;;53.17;46.70;;;11.60;99.90;;;;;;4879638;29;20450;-69
2024/03/22 09:02:08;;;;;;;55.73;48.63;;;11.60;99.90;;;;;;4879330;29;20450;-68
2024/03/22 09:04:35;;;;;;;54.53;47.77;;;11.60;99.90;;;;;;4879074;29;20450;-68
2024/03/22 09:07:02;;;;;;;57.30;47.97;;;11.60;99.90;;;;;;4879225;29;20546;-68
2024/03/22 09:09:29;;;;;;;55.57;47.97;;;11.60;99.90;;;;;;4879188;29;20454;-68
2024/03/22 09:11:55;;;;;;;54.60;47.40;;;11.60;99.90;;;;;;4878720;29;20481;-69
2024/03/22 09:14:22;;;;;;;56.70;49.30;;;11.60;99.90;;;;;;4878822;29;20506;-68
2024/03/22 09:16:50;;;;;;;50.87;44.63;;;11.70;99.90;;;;;;4878848;29;20446;-68
2024/03/22 09:19:17;;;;;;;53.00;43.37;;;11.70;99.90;;;;;;4879447;29;20456;-69
2024/03/22 09:21:44;;;;;;;47.67;42.67;;;11.70;99.90;;;;;;4879041;29;20478;-69
2024/03/22 09:24:11;;;;;;;49.07;43.53;;;11.70;99.90;;;;;;4878775;29;20455;-69
2024/03/22 09:26:37;;;;;;;45.93;39.80;;;11.60;99.90;;;;;;4878686;29;20457;-69
2024/03/22 09:29:04;;;;;;;46.80;41.83;;;11.70;99.90;;;;;;4880212;29;20496;-69
2024/03/22 09:31:33;;;;;;;46.27;41.27;;;11.70;99.90;;;;;;4882472;29;20466;-69
2024/03/22 09:34:02;;;;;;;45.17;40.57;;;11.60;99.90;;;;;;4882427;29;20537;-68
2024/03/22 09:36:31;;;;;;;45.20;40.23;;;11.60;99.90;;;;;;4882001;29;20478;-69
2024/03/22 09:38:58;;;;;;;43.77;39.00;;;11.60;99.90;;;;;;4881848;29;20465;-69
2024/03/22 09:41:25;;;;;;;44.93;39.90;;;11.60;99.90;;;;;;4881608;29;20482;-69
2024/03/22 09:43:54;;;;;;;43.17;38.47;;;11.60;99.90;;;;;;4881576;29;20454;-69
2024/03/22 09:46:20;;;;;;;44.00;38.90;;;11.60;99.90;;;;;;4881688;29;20796;-69
2024/03/22 09:48:49;;;;;;;46.60;40.47;;;11.60;99.90;;;;;;4881960;29;20485;-69
2024/03/22 09:51:17;;;;;;;43.47;38.90;;;11.60;99.90;;;;;;4881658;29;20474;-69
2024/03/22 09:53:46;;;;;;;44.40;39.17;;;11.60;99.90;;;;;;4881564;29;20478;-69
2024/03/22 09:56:14;;;;;;;42.77;38.13;;;11.50;99.90;;;;;;4881546;29;20492;-69
2024/03/22 09:58:42;;;;;;;44.50;39.13;;;11.50;99.90;;;;;;4881634;29;20841;-69
2024/03/22 10:01:10;;;;;;;34.70;30.43;;;11.50;99.90;;;;;;4881549;29;20509;-69
2024/03/22 10:03:36;;;;;;;46.53;41.30;;;11.50;99.90;;;;;;4881406;29;20502;-69
2024/03/22 10:06:07;;;;;;;48.47;42.67;;;11.50;99.90;;;;;;4881556;29;20462;-69
2024/03/22 10:08:35;;;;;;;46.33;40.17;;;11.50;99.90;;;;;;4881422;29;20505;-69
2024/03/22 10:11:03;;;;;;;44.77;38.37;;;11.50;99.90;;;;;;4881344;29;20480;-69
2024/03/22 10:13:30;;;;;;;47.93;38.47;;;11.50;99.90;;;;;;4881326;29;20485;-69
2024/03/22 10:15:58;;;;;;;42.10;36.53;;;11.50;99.90;;;;;;4881382;29;20885;-69
2024/03/22 10:18:24;;;;;;;40.83;35.07;;;11.50;99.90;;;;;;4881211;29;20510;-69
2024/03/22 10:21:01;;;;;;;41.00;36.57;;;11.50;99.90;;;;;;4881287;29;20465;-69
2024/03/22 10:23:27;;;;;;;36.13;31.70;;;11.50;99.90;;;;;;4881734;29;20462;-69
2024/03/22 10:25:57;;;;;;;38.57;32.97;;;11.50;99.90;;;;;;4881151;29;20824;-69
2024/03/22 10:28:24;;;;;;;34.40;31.00;;;11.50;99.90;;;;;;4881430;29;20831;-69
2024/03/22 10:30:53;;;;;;;33.57;29.77;;;11.50;99.90;;;;;;4896492;29;20470;-69
2024/03/22 10:33:19;;;;;;;34.87;31.00;;;11.50;99.90;;;;;;4880895;29;20530;-69
2024/03/22 10:35:48;;;;;;;32.40;29.00;;;11.50;99.90;;;;;;4881085;29;20457;-69
2024/03/22 10:38:16;;;;;;;31.30;28.10;;;11.50;99.90;;;;;;4880780;29;20549;-69
2024/03/22 10:40:46;;;;;;;32.07;28.50;;;11.50;99.90;;;;;;4880010;29;20534;-69
2024/03/22 10:43:14;;;;;;;31.00;27.80;;;11.50;99.90;;;;;;4880847;29;20454;-69
2024/03/22 10:45:42;;;;;;;32.93;29.53;;;11.60;99.90;;;;;;4880792;29;20455;-69
2024/03/22 10:48:10;;;;;;;31.33;28.17;;;11.60;99.90;;;;;;4880744;29;20490;-69
2024/03/22 10:50:40;;;;;;;24.33;21.77;;;11.60;99.90;;;;;;4880680;29;20466;-69
2024/03/22 10:53:10;;;;;;;31.03;27.70;;;11.60;99.90;;;;;;4881126;29;20521;-69
2024/03/22 10:55:42;;;;;;;27.67;24.87;;;11.60;99.90;;;;;;4880838;29;20473;-69
2024/03/22 10:58:16;;;;;;;29.70;26.57;;;11.60;99.90;;;;;;4864859;29;20526;-69
2024/03/22 11:00:44;;;;;;;29.17;25.87;;;11.60;99.90;;;;;;4880679;29;20547;-69
2024/03/22 11:03:13;;;;;;;27.97;24.97;;;11.60;99.90;;;;;;4880791;29;20454;-69
2024/03/22 11:05:46;;;;;;;28.77;25.67;;;11.60;99.90;;;;;;4880509;29;20450;-69
2024/03/22 11:08:13;;;;;;;29.40;26.40;;;11.60;99.90;;;;;;4880244;29;20454;-69
2024/03/22 11:10:40;;;;;;;30.13;26.50;;;11.60;99.90;;;;;;4880291;29;20497;-69
2024/03/22 11:13:09;;;;;;;29.47;26.50;;;11.70;99.90;;;;;;4880131;29;20485;-69
2024/03/22 11:15:37;;;;;;;29.43;26.17;;;11.70;99.90;;;;;;4880313;29;20446;-69
2024/03/22 11:18:04;;;;;;;27.80;25.10;;;11.70;99.90;;;;;;4880238;29;20911;-72
2024/03/22 11:20:32;;;;;;;24.93;22.43;;;11.70;99.90;;;;;;4880255;29;20497;-69
2024/03/22 11:22:58;;;;;;;24.93;22.40;;;11.70;99.90;;;;;;4880044;29;20506;-69
2024/03/22 11:25:26;;;;;;;26.70;24.02;;;11.70;99.90;;;;;;4879360;29;20461;-69
2024/03/22 11:27:54;;;;;;;26.50;22.80;;;11.70;99.90;;;;;;4880081;29;20190;-69
2024/03/22 11:30:21;;;;;;;25.10;22.50;;;11.70;99.90;;;;;;4879903;29;20473;-69
2024/03/22 11:32:49;;;;;;;25.80;23.17;;;11.70;99.90;;;;;;4879819;29;20454;-69
2024/03/22 11:35:17;;;;;;;34.80;25.00;;;11.70;99.90;;;;;;4880157;29;20806;-69
2024/03/22 11:37:43;;;;;;;23.97;21.70;;;11.70;99.90;;;;;;4879903;29;20462;-69
2024/03/22 11:40:11;;;;;;;24.67;22.27;;;11.70;99.90;;;;;;4879804;29;20497;-69
2024/03/22 11:42:39;;;;;;;25.07;22.57;;;11.70;99.90;;;;;;4879813;29;20456;-69
2024/03/22 11:45:08;;;;;;;24.73;22.13;;;11.70;99.90;;;;;;4879625;29;20489;-69
2024/03/22 11:47:34;;;;;;;23.97;21.57;;;11.70;99.90;;;;;;4879840;29;20549;-69
2024/03/22 11:50:03;;;;;;;24.53;22.00;;;11.70;99.90;;;;;;4879620;29;20446;-69
2024/03/22 11:52:30;;;;;;;22.17;20.07;;;11.70;99.90;;;;;;4879444;29;20450;-69
2024/03/22 11:54:57;;;;;;;23.40;21.10;;;11.70;99.90;;;;;;4879373;29;20886;-69
2024/03/22 11:57:25;;;;;;;23.60;21.27;;;11.70;99.90;;;;;;4879575;29;20479;-69
2024/03/22 12:00:00;;;;;;;20.47;18.40;;;11.70;99.90;;;;;;4864197;29;20541;-69
2024/03/22 12:02:27;;;;;;;21.47;19.37;;;11.70;99.90;;;;;;4879489;29;20467;-70
2024/03/22 12:04:54;;;;;;;22.27;20.27;;;11.60;99.90;;;;;;4879365;29;20443;-69
2024/03/22 12:07:22;;;;;;;21.80;19.70;;;11.60;99.90;;;;;;4879351;29;20454;-70
2024/03/22 12:09:49;;;;;;;19.87;17.90;;;11.60;99.90;;;;;;4879162;29;20446;-69
2024/03/22 12:12:16;;;;;;;21.83;19.77;;;11.70;99.90;;;;;;4879113;29;20499;-69
2024/03/22 12:14:43;;;;;;;21.60;19.53;;;11.70;99.90;;;;;;4879165;29;20478;-69
2024/03/22 12:17:09;;;;;;;19.67;17.77;;;11.70;99.90;;;;;;4879133;29;20446;-69
2024/03/22 12:19:37;;;;;;;18.57;16.77;;;11.70;99.90;;;;;;4879384;29;20462;-69
2024/03/22 12:22:05;;;;;;;17.90;16.20;;;11.70;99.90;;;;;;4878993;29;20470;-69
2024/03/22 12:24:34;;;;;;;17.13;15.60;;;11.70;99.90;;;;;;4878980;29;20503;-69
2024/03/22 12:27:01;;;;;;;17.90;16.17;;;11.70;99.90;;;;;;4879044;29;20446;-69
2024/03/22 12:29:28;;;;;;;17.40;15.67;;;11.70;99.90;;;;;;4878910;29;20454;-69